Time;durP1;ratioP1;P1;durP2;ratioP2;P2;SDS_P1;SDS_P2;PMS_P1;PMS_P2;Temp;Humidity;BMP_temperature;BMP_pressure;BME280_temperature;BME280_humidity;BME280_pressure;Samples;Min_cycle;Max_cycle;Signal;HPM_P1;HPM_P2
2022/06/05 00:00:53;;;;;;;21.40;19.20;;;16.10;99.90;;;;;;5073664;28;20193;-73
2022/06/05 00:03:28;;;;;;;20.42;18.48;;;16.10;99.90;;;;;;5073478;28;20262;-73
2022/06/05 00:06:03;;;;;;;20.90;19.00;;;16.00;99.90;;;;;;5073715;28;20196;-73
2022/06/05 00:08:42;;;;;;;20.15;18.25;;;16.00;99.90;;;;;;5073508;28;20224;-73
2022/06/05 00:11:11;;;;;;;21.70;19.85;;;16.00;99.90;;;;;;5073465;28;20197;-73
2022/06/05 00:13:43;;;;;;;22.77;20.57;;;16.00;99.90;;;;;;5073276;28;20197;-74
2022/06/05 00:16:10;;;;;;;21.13;19.27;;;15.90;99.90;;;;;;5073401;28;20197;-74
2022/06/05 00:18:41;;;;;;;20.58;18.77;;;15.80;99.90;;;;;;5073413;28;20228;-73
2022/06/05 00:21:08;;;;;;;20.67;18.77;;;15.80;99.90;;;;;;5073280;28;20244;-73
2022/06/05 00:23:36;;;;;;;21.02;19.23;;;15.80;99.90;;;;;;5073283;28;20481;-73
2022/06/05 00:26:13;;;;;;;20.67;18.90;;;15.90;99.90;;;;;;5073123;28;20200;-73
2022/06/05 00:28:52;;;;;;;20.63;18.87;;;15.90;99.90;;;;;;5073085;28;20228;-73
2022/06/05 00:31:25;;;;;;;19.17;17.47;;;15.90;99.90;;;;;;5073208;28;20258;-73
2022/06/05 00:33:53;;;;;;;20.00;18.30;;;15.90;99.90;;;;;;5073183;28;20204;-73
2022/06/05 00:36:36;;;;;;;20.30;18.58;;;15.90;99.90;;;;;;5072551;28;20192;-73
2022/06/05 00:39:09;;;;;;;22.15;20.08;;;15.90;99.90;;;;;;5073202;28;20209;-73
2022/06/05 00:41:48;;;;;;;20.80;18.70;;;15.90;99.90;;;;;;5072988;28;20197;-73
2022/06/05 00:44:20;;;;;;;19.58;17.77;;;15.90;99.90;;;;;;5073096;28;20204;-73
2022/06/05 00:46:50;;;;;;;19.80;18.10;;;15.80;99.90;;;;;;5072886;28;20197;-73
2022/06/05 00:49:20;;;;;;;19.67;18.00;;;15.80;99.90;;;;;;5052949;28;20232;-73
2022/06/05 00:51:46;;;;;;;19.02;17.42;;;15.90;99.90;;;;;;5052933;28;20202;-73
2022/06/05 00:54:13;;;;;;;18.77;17.17;;;15.80;99.90;;;;;;5052728;28;20657;-73
2022/06/05 00:56:40;;;;;;;20.43;18.63;;;15.90;99.90;;;;;;5052729;28;20255;-73
2022/06/05 00:59:07;;;;;;;18.98;17.38;;;15.90;99.90;;;;;;5052778;28;20205;-73
2022/06/05 01:01:34;;;;;;;19.23;17.52;;;15.90;99.90;;;;;;5052612;28;20213;-73
2022/06/05 01:04:01;;;;;;;19.97;18.27;;;15.90;99.90;;;;;;5052921;28;20198;-73
2022/06/05 01:06:30;;;;;;;18.73;17.02;;;15.80;99.90;;;;;;5052846;28;20197;-73
2022/06/05 01:08:56;;;;;;;18.60;17.10;;;15.80;99.90;;;;;;5052641;28;20221;-73
2022/06/05 01:11:35;;;;;;;19.77;18.07;;;15.80;99.90;;;;;;5052679;28;20197;-73
2022/06/05 01:14:12;;;;;;;19.15;17.52;;;15.80;99.90;;;;;;5052575;28;20634;-74
2022/06/05 01:16:48;;;;;;;18.65;17.02;;;15.70;99.90;;;;;;5052741;28;20207;-73
2022/06/05 01:19:42;;;;;;;20.75;18.73;;;15.70;99.90;;;;;;5052732;28;20213;-73
2022/06/05 01:22:39;;;;;;;19.63;17.83;;;15.60;99.90;;;;;;5052494;28;20197;-73
2022/06/05 01:25:18;;;;;;;19.17;17.57;;;15.60;99.90;;;;;;5052649;28;20202;-73
2022/06/05 01:27:52;;;;;;;20.00;18.20;;;15.60;99.90;;;;;;5052619;28;20244;-73
2022/06/05 01:30:21;;;;;;;21.10;19.20;;;15.60;99.90;;;;;;5052519;28;20263;-73
2022/06/05 01:32:53;;;;;;;21.30;19.40;;;15.60;99.90;;;;;;5052458;28;20198;-73
2022/06/05 01:35:26;;;;;;;20.77;18.97;;;15.60;99.90;;;;;;5052633;28;20202;-73
2022/06/05 01:37:57;;;;;;;21.50;19.48;;;15.60;99.90;;;;;;5052589;28;20206;-73
2022/06/05 01:40:28;;;;;;;21.23;19.33;;;15.50;99.90;;;;;;5052453;28;20259;-73
2022/06/05 01:43:02;;;;;;;21.95;19.63;;;15.40;99.90;;;;;;5052367;28;20715;-73
2022/06/05 01:45:35;;;;;;;22.50;20.30;;;15.40;99.90;;;;;;5052531;28;20244;-73
2022/06/05 01:48:05;;;;;;;21.77;19.87;;;15.40;99.90;;;;;;5064420;28;20229;-73
2022/06/05 01:50:40;;;;;;;21.47;19.33;;;15.40;99.90;;;;;;5076211;28;20193;-73
2022/06/05 01:53:11;;;;;;;21.67;19.77;;;15.40;99.90;;;;;;5076168;28;20236;-73
2022/06/05 01:55:42;;;;;;;22.57;20.37;;;15.40;99.90;;;;;;5075986;28;20254;-73
2022/06/05 01:58:14;;;;;;;22.47;20.47;;;15.40;99.90;;;;;;5076119;28;20193;-73
2022/06/05 02:00:41;;;;;;;22.20;20.10;;;15.40;99.90;;;;;;5077999;28;20197;-72
2022/06/05 02:03:12;;;;;;;22.40;20.40;;;15.40;99.90;;;;;;5077751;28;20246;-73
2022/06/05 02:05:44;;;;;;;22.57;20.57;;;15.30;99.90;;;;;;5075920;28;20197;-73
2022/06/05 02:08:16;;;;;;;24.00;21.98;;;15.30;99.90;;;;;;5075677;28;20201;-73
2022/06/05 02:10:48;;;;;;;23.20;21.05;;;15.30;99.90;;;;;;5075957;28;20201;-73
2022/06/05 02:13:16;;;;;;;23.50;21.40;;;15.30;99.90;;;;;;5075652;28;20838;-73
2022/06/05 02:15:42;;;;;;;23.73;21.53;;;15.30;99.90;;;;;;5075759;28;20253;-73
2022/06/05 02:18:09;;;;;;;23.77;21.50;;;15.30;99.90;;;;;;5075604;28;20197;-73
2022/06/05 02:20:36;;;;;;;24.17;21.93;;;15.20;99.90;;;;;;5075604;28;20197;-73
2022/06/05 02:23:06;;;;;;;22.93;20.73;;;15.20;99.90;;;;;;5075395;28;20213;-73
2022/06/05 02:25:34;;;;;;;23.13;20.87;;;15.20;99.90;;;;;;5075632;28;20201;-73
2022/06/05 02:28:01;;;;;;;22.70;20.80;;;15.20;99.90;;;;;;5075462;28;20200;-73
2022/06/05 02:30:43;;;;;;;22.93;21.03;;;15.10;99.90;;;;;;5075409;28;20286;-73
2022/06/05 02:33:16;;;;;;;23.03;20.93;;;15.10;99.90;;;;;;5075291;28;20204;-73
2022/06/05 02:35:53;;;;;;;24.03;21.67;;;15.20;99.90;;;;;;5075491;28;20242;-73
2022/06/05 02:38:34;;;;;;;23.10;21.10;;;15.10;99.90;;;;;;5075339;28;20591;-73
2022/06/05 02:41:08;;;;;;;24.10;22.00;;;15.00;99.90;;;;;;5075295;28;20603;-73
2022/06/05 02:43:43;;;;;;;23.37;21.23;;;15.10;99.90;;;;;;5075088;28;20201;-73
2022/06/05 02:46:20;;;;;;;23.50;21.47;;;15.10;99.90;;;;;;5075347;28;20246;-73
2022/06/05 02:48:55;;;;;;;23.70;21.67;;;15.00;99.90;;;;;;5075663;28;20757;-72
2022/06/05 02:51:25;;;;;;;23.90;21.80;;;15.10;99.90;;;;;;5077581;28;20288;-73
2022/06/05 02:53:53;;;;;;;24.47;22.17;;;15.10;99.90;;;;;;5075381;28;20254;-73
2022/06/05 02:56:21;;;;;;;24.87;22.33;;;15.00;99.90;;;;;;5075121;28;20193;-73
2022/06/05 02:58:50;;;;;;;23.97;21.73;;;15.00;99.90;;;;;;5074610;28;20230;-73
2022/06/05 03:04:03;;;;;;;25.40;23.00;;;14.90;99.90;;;;;;5074853;28;20243;-73
2022/06/05 03:06:31;;;;;;;24.47;22.00;;;14.90;99.90;;;;;;5074618;28;20201;-73
2022/06/05 03:08:58;;;;;;;23.70;21.63;;;14.90;99.90;;;;;;5074495;28;20716;-73
2022/06/05 03:11:24;;;;;;;23.43;21.47;;;14.90;99.90;;;;;;5074712;28;20193;-73
2022/06/05 03:13:51;;;;;;;25.23;23.00;;;14.90;99.90;;;;;;5074663;28;20255;-73
2022/06/05 03:16:19;;;;;;;25.30;23.00;;;14.90;99.90;;;;;;5074553;28;20282;-73
2022/06/05 03:18:46;;;;;;;24.60;22.40;;;14.90;99.90;;;;;;5074299;28;20262;-73
2022/06/05 03:21:13;;;;;;;24.47;22.27;;;14.90;99.90;;;;;;5074317;28;20201;-73
2022/06/05 03:23:39;;;;;;;23.80;21.70;;;14.90;99.90;;;;;;5074541;28;20205;-73
2022/06/05 03:26:10;;;;;;;23.77;21.57;;;14.90;99.90;;;;;;5074210;28;20702;-73
2022/06/05 03:28:37;;;;;;;22.53;20.53;;;14.90;99.90;;;;;;5074181;28;20616;-73
2022/06/05 03:31:04;;;;;;;23.10;21.10;;;14.90;99.90;;;;;;5074250;28;20242;-73
2022/06/05 03:33:32;;;;;;;23.63;21.60;;;14.90;99.90;;;;;;5074191;28;20201;-73
2022/06/05 03:35:59;;;;;;;23.40;21.27;;;15.00;99.90;;;;;;5074065;28;20718;-73
2022/06/05 03:38:26;;;;;;;22.20;20.30;;;15.00;99.90;;;;;;5074216;28;20255;-73
2022/06/05 03:40:53;;;;;;;23.20;21.20;;;15.00;99.90;;;;;;5074155;28;20201;-73
2022/06/05 03:43:20;;;;;;;22.10;20.20;;;15.00;99.90;;;;;;5073874;28;20200;-73
2022/06/05 03:45:47;;;;;;;23.07;21.07;;;15.10;99.90;;;;;;5073926;28;20242;-73
2022/06/05 03:48:13;;;;;;;21.93;19.83;;;15.10;99.90;;;;;;5073540;28;20229;-73
2022/06/05 03:50:41;;;;;;;21.97;19.97;;;15.10;99.90;;;;;;5073969;28;20251;-73
2022/06/05 03:53:08;;;;;;;20.67;18.23;;;15.30;99.90;;;;;;5073862;28;20205;-73
2022/06/05 03:55:35;;;;;;;20.50;18.70;;;15.30;99.90;;;;;;5073660;28;20659;-73
2022/06/05 03:58:01;;;;;;;18.90;17.30;;;15.50;99.90;;;;;;5073584;28;20717;-73
2022/06/05 04:00:28;;;;;;;19.47;17.70;;;15.60;99.90;;;;;;5073570;28;20197;-73
2022/06/05 04:02:55;;;;;;;18.30;16.80;;;15.70;99.90;;;;;;5074007;28;20197;-73
2022/06/05 04:05:22;;;;;;;18.60;16.98;;;15.70;99.90;;;;;;5073705;28;20463;-73
2022/06/05 04:07:50;;;;;;;17.35;15.75;;;15.90;99.90;;;;;;5073533;28;20250;-73
2022/06/05 04:10:18;;;;;;;18.70;16.98;;;16.00;99.90;;;;;;5072725;28;20221;-73
2022/06/05 04:12:46;;;;;;;16.88;15.35;;;16.10;99.90;;;;;;5073435;28;20603;-73
2022/06/05 04:15:13;;;;;;;17.63;15.93;;;16.20;99.90;;;;;;5073281;28;20197;-73
2022/06/05 04:17:39;;;;;;;17.20;15.63;;;16.20;99.90;;;;;;5073189;28;20594;-73
2022/06/05 04:20:08;;;;;;;16.00;14.60;;;16.40;99.90;;;;;;5073211;28;20588;-73
2022/06/05 04:22:36;;;;;;;16.95;15.40;;;16.40;99.90;;;;;;5073179;28;20718;-73
2022/06/05 04:25:06;;;;;;;16.48;14.98;;;16.50;99.90;;;;;;5073368;28;20267;-73
2022/06/05 04:27:33;;;;;;;15.05;13.73;;;16.60;99.90;;;;;;5073333;28;20201;-73
2022/06/05 04:30:00;;;;;;;15.23;13.98;;;16.60;99.90;;;;;;5072952;28;20271;-73
2022/06/05 04:32:27;;;;;;;14.77;13.57;;;16.70;99.90;;;;;;5073133;28;20656;-73
2022/06/05 04:34:54;;;;;;;15.13;13.73;;;16.80;99.90;;;;;;5073204;28;20231;-73
2022/06/05 04:37:21;;;;;;;15.00;13.57;;;16.90;99.90;;;;;;5073095;28;20259;-73
2022/06/05 04:39:48;;;;;;;15.00;13.60;;;17.00;99.90;;;;;;5073061;28;20216;-73
2022/06/05 04:42:15;;;;;;;15.15;13.85;;;16.90;99.90;;;;;;5072914;28;20193;-73
2022/06/05 04:44:42;;;;;;;15.18;13.98;;;17.00;99.90;;;;;;5073153;28;20200;-74
2022/06/05 04:47:09;;;;;;;14.70;13.43;;;17.00;99.90;;;;;;5072943;28;20240;-73
2022/06/05 04:49:35;;;;;;;14.95;13.60;;;17.00;99.90;;;;;;5073079;28;20274;-73
2022/06/05 04:52:02;;;;;;;15.13;13.73;;;17.10;99.90;;;;;;5072952;28;20205;-73
2022/06/05 04:54:29;;;;;;;14.93;13.63;;;17.00;99.90;;;;;;5072781;28;20681;-73
2022/06/05 04:56:55;;;;;;;14.73;13.52;;;17.10;99.90;;;;;;5072784;28;20205;-73
2022/06/05 04:59:23;;;;;;;16.10;14.60;;;17.20;99.90;;;;;;5072956;28;20201;-73
2022/06/05 05:01:50;;;;;;;15.32;13.98;;;17.30;99.90;;;;;;5072914;28;20201;-72
2022/06/05 05:04:17;;;;;;;15.70;14.30;;;17.30;99.90;;;;;;5072810;28;20255;-72
2022/06/05 05:06:45;;;;;;;14.50;13.40;;;17.30;99.90;;;;;;5072811;28;20258;-72
2022/06/05 05:09:12;;;;;;;15.32;13.93;;;17.50;99.90;;;;;;5072671;28;20279;-73
2022/06/05 05:11:40;;;;;;;14.07;12.98;;;17.50;99.90;;;;;;5072665;28;20623;-72
2022/06/05 05:14:07;;;;;;;14.18;12.98;;;17.60;99.90;;;;;;5072854;28;20202;-73
2022/06/05 05:16:35;;;;;;;15.20;13.65;;;17.70;99.90;;;;;;5073436;28;20197;-71
2022/06/05 05:19:02;;;;;;;13.93;12.73;;;17.90;99.90;;;;;;5074258;28;20331;-73
2022/06/05 05:21:29;;;;;;;15.73;13.13;;;18.10;99.90;;;;;;5074087;28;20265;-72
2022/06/05 05:23:56;;;;;;;14.20;12.90;;;18.10;99.90;;;;;;5076584;28;20254;-72
2022/06/05 05:26:25;;;;;;;13.75;12.65;;;18.20;99.90;;;;;;5076794;28;20205;-73
2022/06/05 05:28:52;;;;;;;13.85;12.75;;;18.30;99.90;;;;;;5076458;28;20660;-73
2022/06/05 05:31:21;;;;;;;15.45;13.98;;;18.40;99.90;;;;;;5076433;28;20233;-73
2022/06/05 05:33:50;;;;;;;14.07;12.90;;;18.40;99.90;;;;;;5076537;28;20197;-72
2022/06/05 05:36:18;;;;;;;14.70;13.45;;;18.50;99.90;;;;;;5076316;28;20197;-72
2022/06/05 05:44:13;;;;;;;13.50;12.40;;;18.90;99.90;;;;;;5076230;28;20201;-73
2022/06/05 05:46:40;;;;;;;13.63;12.40;;;18.80;99.90;;;;;;5076300;28;20200;-73
2022/06/05 05:49:08;;;;;;;12.30;11.35;;;18.70;99.90;;;;;;5075966;28;20237;-73
2022/06/05 05:51:34;;;;;;;13.77;12.50;;;18.80;99.90;;;;;;5076236;28;20282;-73
2022/06/05 05:54:01;;;;;;;12.93;11.93;;;18.80;99.90;;;;;;5076157;28;20197;-73
2022/06/05 05:56:28;;;;;;;13.02;11.98;;;18.80;99.90;;;;;;5076105;28;20193;-73
2022/06/05 05:58:54;;;;;;;13.40;12.13;;;18.80;99.90;;;;;;5075946;28;20254;-73
2022/06/05 06:01:21;;;;;;;13.43;12.30;;;18.80;99.90;;;;;;5075857;28;20200;-73
2022/06/05 06:03:48;;;;;;;13.50;12.32;;;18.70;99.90;;;;;;5075845;28;20201;-73
2022/06/05 06:06:16;;;;;;;13.27;12.18;;;18.80;99.90;;;;;;5076699;28;20201;-72
2022/06/05 06:08:43;;;;;;;13.00;12.00;;;18.80;99.90;;;;;;5076583;28;20205;-73
2022/06/05 06:11:10;;;;;;;13.30;11.98;;;18.80;99.90;;;;;;5075666;28;20220;-71
2022/06/05 06:13:36;;;;;;;13.07;11.98;;;18.90;99.90;;;;;;5075542;28;20713;-72
2022/06/05 06:16:03;;;;;;;12.52;11.43;;;19.00;99.90;;;;;;5075563;28;20201;-72
2022/06/05 06:18:30;;;;;;;12.10;11.20;;;19.10;99.90;;;;;;5075763;28;20251;-72
2022/06/05 06:20:56;;;;;;;13.68;12.30;;;19.10;99.90;;;;;;5075662;28;20201;-72
2022/06/05 06:23:24;;;;;;;12.13;11.13;;;19.10;99.90;;;;;;5075627;28;20529;-72
2022/06/05 06:25:51;;;;;;;12.70;11.57;;;19.20;99.90;;;;;;5075437;28;20201;-72
2022/06/05 06:28:17;;;;;;;13.10;12.05;;;19.40;99.90;;;;;;5075431;28;20246;-71
2022/06/05 06:30:45;;;;;;;13.23;12.02;;;19.30;99.90;;;;;;5075150;28;20346;-71
2022/06/05 06:33:11;;;;;;;12.90;11.88;;;19.10;99.90;;;;;;5074308;28;20517;-73
2022/06/05 06:35:38;;;;;;;12.13;11.02;;;19.20;99.90;;;;;;5075179;28;20247;-71
2022/06/05 06:38:06;;;;;;;12.10;11.02;;;19.40;99.90;;;;;;5075266;28;20243;-72
2022/06/05 06:40:35;;;;;;;12.55;11.45;;;19.70;99.90;;;;;;5075205;28;20250;-72
2022/06/05 06:43:02;;;;;;;13.90;12.70;;;19.90;99.90;;;;;;5075049;28;20194;-72
2022/06/05 06:45:29;;;;;;;12.55;11.38;;;20.00;99.90;;;;;;5075006;28;20683;-72
2022/06/05 06:47:56;;;;;;;11.52;10.60;;;20.20;99.90;;;;;;5075076;28;20225;-72
2022/06/05 06:50:23;;;;;;;11.95;10.82;;;20.20;99.90;;;;;;5074910;28;20311;-72
2022/06/05 06:52:49;;;;;;;11.55;10.65;;;20.30;99.90;;;;;;5075141;28;20251;-72
2022/06/05 06:55:17;;;;;;;11.80;10.82;;;20.30;99.90;;;;;;5075080;28;20247;-72
2022/06/05 06:57:46;;;;;;;12.55;11.27;;;20.40;99.90;;;;;;5074912;28;20263;-72
2022/06/05 07:00:16;;;;;;;11.25;10.25;;;20.30;99.90;;;;;;5074825;28;20270;-73
2022/06/05 07:02:42;;;;;;;12.05;10.88;;;20.20;99.90;;;;;;5074790;28;20550;-72
2022/06/05 07:05:09;;;;;;;12.48;11.48;;;20.10;99.90;;;;;;5074572;28;20717;-72
2022/06/05 07:07:36;;;;;;;11.30;10.40;;;19.90;99.90;;;;;;5074585;28;20644;-72
2022/06/05 07:10:04;;;;;;;13.38;12.35;;;20.00;99.90;;;;;;5074600;28;20220;-72
2022/06/05 07:12:31;;;;;;;12.82;11.70;;;19.80;99.90;;;;;;5074427;28;20663;-72
2022/06/05 07:14:59;;;;;;;13.45;12.45;;;19.70;99.90;;;;;;5074740;28;20193;-72
2022/06/05 07:17:27;;;;;;;13.15;11.95;;;19.50;99.90;;;;;;5074509;28;20197;-73
2022/06/05 07:19:53;;;;;;;14.05;12.95;;;19.30;99.90;;;;;;5074096;28;20237;-72
2022/06/05 07:22:20;;;;;;;13.82;12.73;;;19.20;99.90;;;;;;5074112;28;20201;-72
2022/06/05 07:24:47;;;;;;;14.80;13.63;;;18.90;99.90;;;;;;5073885;28;20197;-74
2022/06/05 07:27:13;;;;;;;15.40;13.90;;;18.50;99.90;;;;;;5074251;28;20200;-73
2022/06/05 07:29:40;;;;;;;16.00;14.60;;;18.20;99.90;;;;;;5074128;28;20197;-73
2022/06/05 07:32:09;;;;;;;15.32;14.10;;;18.00;99.90;;;;;;5074125;28;20228;-73
2022/06/05 07:34:36;;;;;;;17.05;15.63;;;17.90;99.90;;;;;;5074145;28;20201;-73
2022/06/05 07:37:03;;;;;;;16.33;14.98;;;17.80;99.90;;;;;;5074048;28;20266;-73
2022/06/05 07:39:30;;;;;;;15.90;14.52;;;17.90;99.90;;;;;;5074007;28;20193;-73
2022/06/05 07:41:58;;;;;;;17.75;15.98;;;17.80;99.90;;;;;;5074101;28;20204;-73
2022/06/05 07:44:25;;;;;;;16.60;15.13;;;17.70;99.90;;;;;;5073995;28;20553;-73
2022/06/05 07:46:52;;;;;;;18.20;16.70;;;17.60;99.90;;;;;;5073806;28;20197;-73
2022/06/05 07:49:20;;;;;;;17.60;16.15;;;17.60;99.90;;;;;;5073910;28;20255;-74
2022/06/05 07:54:34;;;;;;;19.42;17.83;;;17.30;99.90;;;;;;5073757;28;20250;-74
2022/06/05 07:57:03;;;;;;;21.23;19.13;;;17.10;99.90;;;;;;5073762;28;20204;-74
2022/06/05 07:59:32;;;;;;;21.13;19.30;;;16.90;99.90;;;;;;5073746;28;20201;-75
2022/06/05 08:02:01;;;;;;;20.38;18.50;;;16.90;99.90;;;;;;5055626;28;20208;-74
2022/06/05 08:04:29;;;;;;;21.23;19.50;;;16.90;99.90;;;;;;5073435;28;20223;-75
2022/06/05 08:06:58;;;;;;;22.35;20.20;;;16.80;99.90;;;;;;5073736;28;20201;-74
2022/06/05 08:09:26;;;;;;;23.67;21.58;;;16.90;99.90;;;;;;5073497;28;20251;-74
2022/06/05 08:11:52;;;;;;;22.67;20.58;;;16.90;99.90;;;;;;5073167;28;20270;-74
2022/06/05 08:14:19;;;;;;;24.58;22.40;;;17.00;99.90;;;;;;5073392;28;20284;-74
2022/06/05 08:16:47;;;;;;;23.88;21.88;;;17.00;99.90;;;;;;5073117;28;20664;-74
2022/06/05 08:19:15;;;;;;;22.77;20.83;;;17.00;99.90;;;;;;5073087;28;20197;-74
2022/06/05 08:21:43;;;;;;;23.88;21.65;;;17.10;99.90;;;;;;5073033;28;20661;-74
2022/06/05 08:24:10;;;;;;;23.25;21.13;;;17.10;99.90;;;;;;5073057;28;20673;-74
2022/06/05 08:26:37;;;;;;;21.90;20.10;;;17.10;99.90;;;;;;5073034;28;20255;-75
2022/06/05 08:29:04;;;;;;;23.42;21.45;;;17.10;99.90;;;;;;5072951;28;20193;-74
2022/06/05 08:31:31;;;;;;;21.92;19.95;;;17.10;99.90;;;;;;5072617;28;20216;-75
2022/06/05 08:33:58;;;;;;;22.90;21.00;;;17.10;99.90;;;;;;5073180;28;20196;-74
2022/06/05 08:36:25;;;;;;;23.45;21.13;;;17.10;99.90;;;;;;5073794;28;20205;-74
2022/06/05 08:41:46;;;;;;;25.35;22.98;;;17.10;99.90;;;;;;5073219;28;20242;-74
2022/06/05 08:44:25;;;;;;;25.23;22.92;;;17.00;99.90;;;;;;5073090;28;20193;-74
2022/06/05 08:46:56;;;;;;;24.17;22.05;;;17.00;99.90;;;;;;5072921;28;20231;-74
2022/06/05 08:49:34;;;;;;;23.30;21.00;;;17.00;99.90;;;;;;5072958;28;20564;-74
2022/06/05 08:52:08;;;;;;;24.30;21.98;;;17.00;99.90;;;;;;5072740;28;20278;-74
2022/06/05 08:54:42;;;;;;;22.83;20.92;;;17.00;99.90;;;;;;5055263;28;20201;-74
2022/06/05 08:57:15;;;;;;;23.58;21.40;;;17.00;99.90;;;;;;5072208;28;20228;-73
2022/06/05 08:59:46;;;;;;;23.65;21.65;;;17.00;99.90;;;;;;5072782;28;20209;-73
2022/06/05 09:02:20;;;;;;;24.25;22.10;;;17.00;99.90;;;;;;5072807;28;20246;-73
2022/06/05 09:04:53;;;;;;;24.80;22.52;;;17.00;99.90;;;;;;5072703;28;20196;-73
2022/06/05 09:07:25;;;;;;;22.92;20.92;;;17.00;99.90;;;;;;5072897;28;20196;-73
2022/06/05 09:09:59;;;;;;;24.60;22.35;;;17.00;99.90;;;;;;5072796;28;20201;-73
2022/06/05 09:12:33;;;;;;;25.08;22.77;;;17.00;99.90;;;;;;5072536;28;20627;-73
2022/06/05 09:15:06;;;;;;;25.90;23.33;;;16.90;99.90;;;;;;5072690;28;20192;-74
2022/06/05 09:17:34;;;;;;;28.92;26.13;;;16.90;99.90;;;;;;5072434;28;20268;-73
2022/06/05 09:20:00;;;;;;;27.77;25.27;;;16.70;99.90;;;;;;5072746;28;20254;-74
2022/06/05 09:22:43;;;;;;;29.63;26.67;;;16.60;99.90;;;;;;5072570;28;20200;-73
2022/06/05 09:25:39;;;;;;;27.95;25.45;;;16.40;99.90;;;;;;5073573;28;20197;-73
2022/06/05 09:28:26;;;;;;;35.03;29.05;;;16.30;99.90;;;;;;5072737;28;20201;-74
2022/06/05 09:30:57;;;;;;;29.90;27.17;;;16.30;99.90;;;;;;5072524;28;20224;-73
2022/06/05 09:33:27;;;;;;;34.20;30.65;;;16.20;99.90;;;;;;5072426;28;20201;-74
2022/06/05 09:35:57;;;;;;;32.92;29.83;;;16.20;99.90;;;;;;5072178;28;20201;-74
2022/06/05 09:38:29;;;;;;;32.22;29.10;;;16.20;99.90;;;;;;5072330;28;20247;-74
2022/06/05 09:41:08;;;;;;;34.20;30.98;;;16.10;99.90;;;;;;5072587;28;20262;-75
2022/06/05 09:44:04;;;;;;;35.20;31.98;;;15.90;99.90;;;;;;5072466;28;20250;-75
2022/06/05 09:46:45;;;;;;;33.55;30.33;;;15.90;99.90;;;;;;5059324;28;20205;-76
2022/06/05 09:49:17;;;;;;;34.83;31.38;;;15.90;99.90;;;;;;5072149;28;20270;-75
2022/06/05 09:51:45;;;;;;;37.97;34.05;;;15.90;99.90;;;;;;5072367;28;20311;-76
2022/06/05 09:54:18;;;;;;;34.78;31.38;;;16.20;99.90;;;;;;5072286;28;20232;-75
2022/06/05 09:59:48;;;;;;;38.95;35.15;;;16.30;99.90;;;;;;5072303;28;20204;-76
2022/06/05 10:02:17;;;;;;;38.65;34.55;;;16.50;99.90;;;;;;5072257;28;20192;-76
2022/06/05 10:04:44;;;;;;;37.38;33.28;;;16.50;99.90;;;;;;5072240;28;20331;-76
2022/06/05 10:07:18;;;;;;;33.92;30.73;;;16.50;99.90;;;;;;5072174;28;20193;-76
2022/06/05 10:09:46;;;;;;;30.88;27.95;;;16.50;99.90;;;;;;5075066;28;20594;-76
2022/06/05 10:12:23;;;;;;;28.70;25.95;;;16.50;99.90;;;;;;5075750;28;20228;-76
2022/06/05 10:14:56;;;;;;;32.20;28.88;;;16.40;99.90;;;;;;5075750;28;20205;-76
2022/06/05 10:17:46;;;;;;;27.98;25.30;;;16.50;99.90;;;;;;5075610;28;20262;-77
2022/06/05 10:20:45;;;;;;;22.80;20.17;;;16.60;99.90;;;;;;5075874;28;20259;-76
2022/06/05 10:23:35;;;;;;;18.23;16.63;;;16.90;99.90;;;;;;5071432;28;20664;-76
2022/06/05 10:26:15;;;;;;;19.10;17.40;;;17.30;99.90;;;;;;5062914;28;20887;-76
2022/06/05 10:28:44;;;;;;;17.02;15.40;;;17.40;99.90;;;;;;5075416;28;20556;-76
2022/06/05 10:31:14;;;;;;;15.18;12.52;;;17.40;99.90;;;;;;5075371;28;20250;-77
2022/06/05 10:33:48;;;;;;;11.45;10.35;;;17.50;99.90;;;;;;5075111;28;20678;-77
2022/06/05 10:36:17;;;;;;;12.32;9.80;;;17.90;99.90;;;;;;5075182;28;20239;-77
2022/06/05 10:38:53;;;;;;;9.68;8.45;;;19.00;99.90;;;;;;5075064;28;20205;-77
2022/06/05 10:41:26;;;;;;;19.05;10.40;;;20.20;99.90;;;;;;5075641;28;20279;-77
2022/06/05 10:44:20;;;;;;;10.43;9.38;;;21.20;99.90;;;;;;5079725;28;20215;-77
2022/06/05 10:47:03;;;;;;;9.05;7.30;;;21.30;99.90;;;;;;5075198;28;20243;-76
2022/06/05 10:49:36;;;;;;;8.13;7.32;;;21.20;99.90;;;;;;5055284;28;20194;-77
2022/06/05 10:52:16;;;;;;;8.85;7.50;;;21.20;99.90;;;;;;5054971;28;20233;-77
2022/06/05 10:54:50;;;;;;;9.60;8.70;;;21.10;99.90;;;;;;5054883;28;20206;-77
2022/06/05 10:57:22;;;;;;;9.95;9.05;;;21.10;99.90;;;;;;5054617;28;20580;-76
2022/06/05 10:59:59;;;;;;;9.23;7.68;;;21.10;99.90;;;;;;5054931;28;20263;-76
2022/06/05 11:02:52;;;;;;;9.05;8.07;;;20.90;99.90;;;;;;5054772;28;20198;-76
2022/06/05 11:05:39;;;;;;;9.43;8.48;;;21.00;99.90;;;;;;5054669;28;20661;-75
2022/06/05 11:08:15;;;;;;;7.50;6.80;;;21.40;99.90;;;;;;5054900;28;20205;-75
2022/06/05 11:13:49;;;;;;;8.43;7.72;;;22.80;99.90;;;;;;5054485;28;20204;-75
2022/06/05 11:16:28;;;;;;;9.40;8.55;;;24.00;99.90;;;;;;5054464;28;20208;-74
2022/06/05 11:19:09;;;;;;;7.63;6.90;;;24.70;99.90;;;;;;5054149;28;20202;-74
2022/06/05 11:21:37;;;;;;;7.75;6.32;;;25.70;99.90;;;;;;5054241;28;20708;-74
2022/06/05 11:24:08;;;;;;;6.45;5.95;;;25.70;99.90;;;;;;5054162;28;20251;-73
2022/06/05 11:26:43;;;;;;;5.55;5.13;;;25.30;99.90;;;;;;5054043;28;20251;-73
2022/06/05 11:29:22;;;;;;;5.18;4.78;;;25.10;99.90;;;;;;5054265;28;20262;-73
2022/06/05 11:32:06;;;;;;;5.68;5.20;;;24.60;99.90;;;;;;5054055;28;20225;-73
2022/06/05 11:34:44;;;;;;;5.50;5.00;;;24.80;99.90;;;;;;5054018;28;20251;-73
2022/06/05 11:37:22;;;;;;;5.55;5.03;;;24.30;99.90;;;;;;5053955;28;20201;-73
2022/06/05 11:39:57;;;;;;;10.35;9.48;;;23.60;99.90;;;;;;5054056;28;20201;-73
2022/06/05 11:42:28;;;;;;;8.30;7.70;;;23.70;99.90;;;;;;5053925;28;20255;-73
2022/06/05 11:45:00;;;;;;;9.07;8.27;;;23.80;99.90;;;;;;5053736;28;20201;-73
2022/06/05 11:47:35;;;;;;;7.13;5.35;;;24.00;99.90;;;;;;5058681;28;20228;-73
2022/06/05 11:50:10;;;;;;;6.47;5.88;;;23.90;99.90;;;;;;5073843;28;20246;-73
2022/06/05 11:52:41;;;;;;;4.97;4.57;;;24.00;99.90;;;;;;5073946;28;20232;-72
2022/06/05 11:55:22;;;;;;;4.65;4.32;;;24.20;99.90;;;;;;5073793;28;20196;-73
2022/06/05 11:57:55;;;;;;;4.55;4.00;;;24.30;99.90;;;;;;5073667;28;20197;-73
2022/06/05 12:00:29;;;;;;;4.50;4.10;;;24.40;99.90;;;;;;5073849;28;20474;-73
2022/06/05 12:03:04;;;;;;;3.40;3.15;;;24.10;99.90;;;;;;5073671;28;20192;-73
2022/06/05 12:05:39;;;;;;;3.60;3.30;;;24.10;99.90;;;;;;5073502;28;20192;-73
2022/06/05 12:08:10;;;;;;;4.57;2.95;;;24.10;99.90;;;;;;5073389;28;20204;-73
2022/06/05 12:10:48;;;;;;;3.65;3.35;;;23.90;99.90;;;;;;5073280;28;20201;-73
2022/06/05 12:13:32;;;;;;;3.50;3.22;;;23.80;99.90;;;;;;5073348;28;20224;-73
2022/06/05 12:16:02;;;;;;;4.05;3.75;;;23.70;99.90;;;;;;5073125;28;20200;-73
2022/06/05 12:18:36;;;;;;;3.80;3.50;;;23.60;99.90;;;;;;5073375;28;20247;-73
2022/06/05 12:21:11;;;;;;;4.22;3.90;;;23.50;99.90;;;;;;5073395;28;20262;-73
2022/06/05 12:23:44;;;;;;;4.95;4.55;;;23.40;99.90;;;;;;5073006;28;20193;-73
2022/06/05 12:26:21;;;;;;;5.65;5.15;;;22.90;99.90;;;;;;5073196;28;20193;-73
2022/06/05 12:28:53;;;;;;;5.82;5.32;;;22.70;99.90;;;;;;5073106;28;20246;-73
2022/06/05 12:31:23;;;;;;;6.28;5.78;;;22.40;99.90;;;;;;5072348;28;20201;-73
2022/06/05 12:33:58;;;;;;;6.43;5.93;;;22.00;99.90;;;;;;5073553;28;20201;-73
2022/06/05 12:36:29;;;;;;;7.22;6.53;;;21.60;99.90;;;;;;5073129;28;20212;-73
2022/06/05 12:39:00;;;;;;;7.88;7.28;;;21.30;99.90;;;;;;5073006;28;20287;-73
2022/06/05 12:41:37;;;;;;;8.77;7.95;;;21.20;99.90;;;;;;5072942;28;20223;-73
2022/06/05 12:44:14;;;;;;;8.98;8.18;;;21.20;99.90;;;;;;5072871;28;20651;-73
2022/06/05 12:46:46;;;;;;;8.27;7.57;;;21.10;99.90;;;;;;5073035;28;20196;-73
2022/06/05 12:49:24;;;;;;;7.53;7.00;;;21.10;99.90;;;;;;5072632;28;20434;-72
2022/06/05 12:52:05;;;;;;;7.18;6.57;;;21.20;99.90;;;;;;5072665;28;20224;-73
2022/06/05 12:54:38;;;;;;;8.43;7.68;;;21.30;99.90;;;;;;5072942;28;20200;-72
2022/06/05 12:57:13;;;;;;;6.65;6.10;;;21.20;99.90;;;;;;5072863;28;20201;-73
2022/06/05 12:59:48;;;;;;;6.35;5.75;;;21.40;99.90;;;;;;5072737;28;20266;-72
2022/06/05 13:02:27;;;;;;;5.93;5.43;;;21.20;99.90;;;;;;5072570;28;20208;-72
2022/06/05 13:05:00;;;;;;;5.38;4.88;;;21.10;99.90;;;;;;5072650;28;20742;-73
2022/06/05 13:07:44;;;;;;;5.28;4.88;;;21.10;99.90;;;;;;5072767;28;20250;-73
2022/06/05 13:10:24;;;;;;;5.60;5.10;;;21.10;99.90;;;;;;5072758;28;20204;-72